createdAt,value
2023-03-10T00:00:12.606Z,9.78
2023-03-10T00:02:39.201Z,9.80
2023-03-10T00:05:06.107Z,9.82
2023-03-10T00:07:32.658Z,9.85
2023-03-10T00:09:59.148Z,9.89
2023-03-10T00:12:27.819Z,9.97
2023-03-10T00:14:55.223Z,10.02
2023-03-10T00:17:21.920Z,10.02
2023-03-10T00:19:48.392Z,9.99
2023-03-10T00:22:14.897Z,9.97
2023-03-10T00:24:41.315Z,9.93
2023-03-10T00:27:07.840Z,9.90
2023-03-10T00:29:34.299Z,9.88
2023-03-10T00:32:00.769Z,9.89
2023-03-10T00:34:27.217Z,9.83
2023-03-10T00:36:53.720Z,9.79
2023-03-10T00:39:20.156Z,9.80
2023-03-10T00:41:46.667Z,9.81
2023-03-10T00:44:13.201Z,9.82
2023-03-10T00:46:40.190Z,9.84
2023-03-10T00:49:08.308Z,9.84
2023-03-10T00:51:35.660Z,9.80
2023-03-10T00:54:03.184Z,9.80
2023-03-10T00:56:30.368Z,9.78
2023-03-10T00:58:59.967Z,9.74
2023-03-10T01:01:39.700Z,9.73
2023-03-10T01:04:09.404Z,9.75
2023-03-10T01:06:36.716Z,9.72
2023-03-10T01:09:05.926Z,9.67
2023-03-10T01:11:33.248Z,9.64
2023-03-10T01:14:02.939Z,9.59
2023-03-10T01:16:30.545Z,9.53
2023-03-10T01:18:58.676Z,9.52
2023-03-10T01:21:29.068Z,9.52
2023-03-10T01:23:55.760Z,9.49
2023-03-10T01:26:22.280Z,9.47
2023-03-10T01:28:49.180Z,9.44
2023-03-10T01:31:17.287Z,9.46
2023-03-10T01:33:45.619Z,9.47
2023-03-10T01:36:15.933Z,9.42
2023-03-10T01:38:43.258Z,9.43
2023-03-10T01:41:10.145Z,9.43
2023-03-10T01:43:38.709Z,9.43
2023-03-10T01:46:24.750Z,9.40
2023-03-10T01:48:51.552Z,9.38
2023-03-10T01:51:18.716Z,9.35
2023-03-10T01:53:45.280Z,9.29
2023-03-10T01:56:12.007Z,9.29
2023-03-10T01:58:42.460Z,9.17
2023-03-10T02:01:11.692Z,9.20
2023-03-10T02:03:47.032Z,9.20
2023-03-10T02:06:15.363Z,9.15
2023-03-10T02:08:45.743Z,9.12
2023-03-10T02:11:14.320Z,9.03
2023-03-10T02:13:40.880Z,9.04
2023-03-10T02:16:07.681Z,9.02
2023-03-10T02:18:34.266Z,9.02
2023-03-10T02:21:10.381Z,8.98
2023-03-10T02:23:55.012Z,8.91
2023-03-10T02:26:27.179Z,8.89
2023-03-10T02:28:55.880Z,8.90
2023-03-10T02:31:22.921Z,8.89
2023-03-10T02:33:50.602Z,8.91
2023-03-10T02:36:20.593Z,8.90
2023-03-10T02:38:47.156Z,8.91
2023-03-10T02:41:26.794Z,8.90
2023-03-10T02:43:54.924Z,8.88
2023-03-10T02:46:22.141Z,8.87
2023-03-10T02:48:48.670Z,8.87
2023-03-10T02:51:19.531Z,8.88
2023-03-10T02:53:45.931Z,8.84
2023-03-10T02:56:12.763Z,8.88
2023-03-10T02:58:39.293Z,8.91
2023-03-10T03:01:06.550Z,8.93
2023-03-10T03:03:33.647Z,8.96
2023-03-10T03:06:00.374Z,8.92
2023-03-10T03:08:27.402Z,8.87
2023-03-10T03:10:54.388Z,8.85
2023-03-10T03:13:20.934Z,8.85
2023-03-10T03:15:48.716Z,8.84
2023-03-10T03:18:15.145Z,8.85
2023-03-10T03:20:41.723Z,8.88
2023-03-10T03:23:08.400Z,8.92
2023-03-10T03:25:37.461Z,8.98
2023-03-10T03:28:05.281Z,8.99
2023-03-10T03:30:32.350Z,9.01
2023-03-10T03:32:59.060Z,9.02
2023-03-10T03:35:32.400Z,9.02
2023-03-10T03:37:59.588Z,9.02
2023-03-10T03:40:27.766Z,9.05
2023-03-10T03:42:54.960Z,9.04
2023-03-10T03:45:26.398Z,9.06
2023-03-10T03:47:52.935Z,9.07
2023-03-10T03:50:20.992Z,9.05
2023-03-10T03:52:47.749Z,9.08
2023-03-10T03:55:15.948Z,9.08
2023-03-10T03:57:44.887Z,9.09
2023-03-10T04:00:15.940Z,9.07
2023-03-10T04:02:42.713Z,9.07
2023-03-10T04:05:09.350Z,9.06
2023-03-10T04:07:37.808Z,9.05
2023-03-10T04:10:05.150Z,9.06
2023-03-10T04:12:31.626Z,9.00
2023-03-10T04:14:58.155Z,9.04
2023-03-10T04:17:24.592Z,9.02
2023-03-10T04:20:04.639Z,9.02
2023-03-10T04:22:33.278Z,9.03
2023-03-10T04:24:59.938Z,9.03
2023-03-10T04:27:26.409Z,9.03
2023-03-10T04:29:52.872Z,9.01
2023-03-10T04:32:19.400Z,9.02
2023-03-10T04:34:45.888Z,9.01
2023-03-10T04:37:12.386Z,8.97
2023-03-10T04:39:39.687Z,8.95
2023-03-10T04:42:06.299Z,8.92
2023-03-10T04:44:32.950Z,8.91
2023-03-10T04:46:59.864Z,8.91
2023-03-10T04:49:26.999Z,8.90
2023-03-10T04:51:53.593Z,8.88
2023-03-10T04:54:20.032Z,8.85
2023-03-10T04:56:46.439Z,8.83
2023-03-10T04:59:12.976Z,8.83
2023-03-10T05:01:39.482Z,8.81
2023-03-10T05:04:06.543Z,8.81
2023-03-10T05:06:33.268Z,8.81
2023-03-10T05:09:01.136Z,8.77
2023-03-10T05:11:27.595Z,8.75
2023-03-10T05:13:54.084Z,8.75
2023-03-10T05:16:21.688Z,8.75
2023-03-10T05:18:48.321Z,8.74
2023-03-10T05:21:15.154Z,8.75
2023-03-10T05:23:41.845Z,8.75
2023-03-10T05:26:12.120Z,8.75
2023-03-10T05:28:38.669Z,8.75
2023-03-10T05:31:14.930Z,8.73
2023-03-10T05:33:42.180Z,8.75
2023-03-10T05:36:11.237Z,8.73
2023-03-10T05:38:38.085Z,8.74
2023-03-10T05:41:09.585Z,8.75
2023-03-10T05:43:37.328Z,8.76
2023-03-10T05:46:04.486Z,8.79
2023-03-10T05:48:31.131Z,8.79
2023-03-10T05:51:07.556Z,8.81
2023-03-10T05:53:35.708Z,8.80
2023-03-10T05:56:08.016Z,8.81
2023-03-10T05:58:35.306Z,8.81
2023-03-10T06:01:02.230Z,8.83
2023-03-10T06:03:30.101Z,8.84
2023-03-10T06:05:57.916Z,8.83
2023-03-10T06:08:25.455Z,8.84
2023-03-10T06:10:51.917Z,8.87
2023-03-10T06:13:21.331Z,8.87
2023-03-10T06:15:52.853Z,8.89
2023-03-10T06:18:19.965Z,8.92
2023-03-10T06:20:48.007Z,8.92
2023-03-10T06:23:15.885Z,8.95
2023-03-10T06:25:42.724Z,8.97
2023-03-10T06:28:10.674Z,8.98
2023-03-10T06:30:37.487Z,8.98
2023-03-10T06:33:04.106Z,9.01
2023-03-10T06:35:31.881Z,9.01
2023-03-10T06:37:58.325Z,9.01
2023-03-10T06:40:25.043Z,9.01
2023-03-10T06:42:51.481Z,9.02
2023-03-10T06:45:18.113Z,9.06
2023-03-10T06:47:45.257Z,9.06
2023-03-10T06:50:13.126Z,9.07
2023-03-10T06:52:39.698Z,9.07
2023-03-10T06:55:06.834Z,9.08
2023-03-10T06:57:33.999Z,9.09
2023-03-10T07:00:00.550Z,9.10
2023-03-10T07:02:27.189Z,9.12
2023-03-10T07:04:53.789Z,9.07
2023-03-10T07:07:20.337Z,9.11
2023-03-10T07:09:47.018Z,9.12
2023-03-10T07:12:13.552Z,9.13
2023-03-10T07:14:40.040Z,9.12
2023-03-10T07:17:06.632Z,9.09
2023-03-10T07:19:33.218Z,9.03
2023-03-10T07:21:59.698Z,9.06
2023-03-10T07:24:26.164Z,9.08
2023-03-10T07:26:53.516Z,9.13
2023-03-10T07:29:19.979Z,9.22
2023-03-10T07:31:46.596Z,9.47
2023-03-10T07:34:13.464Z,9.57
2023-03-10T07:36:39.876Z,9.59
2023-03-10T07:39:06.340Z,9.72
2023-03-10T07:41:32.803Z,9.67
2023-03-10T07:43:59.407Z,9.80
2023-03-10T07:46:26.005Z,9.76
2023-03-10T07:48:52.989Z,9.79
2023-03-10T07:51:21.002Z,9.86
2023-03-10T07:53:47.549Z,9.80
2023-03-10T07:56:14.894Z,9.79
2023-03-10T07:58:42.040Z,9.74
2023-03-10T08:01:13.680Z,9.70
2023-03-10T08:03:40.828Z,9.66
2023-03-10T08:06:07.531Z,9.68
2023-03-10T08:08:34.130Z,9.66
2023-03-10T08:11:01.874Z,9.70
2023-03-10T08:13:28.605Z,9.72
2023-03-10T08:15:55.688Z,9.74
2023-03-10T08:18:23.367Z,9.84
2023-03-10T08:20:49.863Z,9.90
2023-03-10T08:23:16.356Z,9.88
2023-03-10T08:25:42.833Z,9.93
2023-03-10T08:28:09.285Z,10.05
2023-03-10T08:30:43.667Z,10.09
2023-03-10T08:33:19.027Z,10.14
2023-03-10T08:35:45.499Z,10.17
2023-03-10T08:38:11.980Z,10.15
2023-03-10T08:40:38.558Z,10.15
2023-03-10T08:43:06.226Z,10.20
2023-03-10T08:45:32.871Z,10.20
2023-03-10T08:47:59.387Z,10.22
2023-03-10T08:50:25.909Z,10.25
2023-03-10T08:52:52.410Z,10.27
2023-03-10T08:55:18.981Z,10.38
2023-03-10T08:57:45.463Z,10.56
2023-03-10T09:00:12.897Z,10.82
2023-03-10T09:02:40.071Z,11.13
2023-03-10T09:05:07.071Z,11.26
2023-03-10T09:07:33.627Z,11.23
2023-03-10T09:10:00.089Z,11.28
2023-03-10T09:12:31.427Z,11.21
2023-03-10T09:15:01.659Z,11.16
2023-03-10T09:17:28.123Z,11.03
2023-03-10T09:19:54.556Z,11.06
2023-03-10T09:22:21.015Z,10.95
2023-03-10T09:24:47.468Z,11.00
2023-03-10T09:27:13.923Z,10.93
2023-03-10T09:29:43.374Z,11.05
2023-03-10T09:32:10.553Z,11.08
2023-03-10T09:34:37.090Z,11.23
2023-03-10T09:37:03.649Z,11.17
2023-03-10T09:39:30.123Z,11.23
2023-03-10T09:41:56.609Z,11.36
2023-03-10T09:44:38.755Z,11.51
2023-03-10T09:47:19.645Z,11.40
2023-03-10T09:50:17.796Z,11.41
2023-03-10T09:53:14.430Z,11.49
2023-03-10T09:55:47.843Z,11.54
2023-03-10T09:58:32.478Z,11.63
2023-03-10T10:01:00.388Z,11.80
2023-03-10T10:03:50.132Z,11.87
2023-03-10T10:06:24.038Z,11.86
2023-03-10T10:09:27.980Z,11.70
2023-03-10T10:11:54.526Z,11.64
2023-03-10T10:14:30.535Z,11.61
2023-03-10T10:17:16.188Z,11.69
2023-03-10T10:19:45.840Z,11.59
2023-03-10T10:22:48.069Z,11.45
2023-03-10T10:25:25.326Z,11.41
2023-03-10T10:27:55.235Z,11.41
2023-03-10T10:30:36.063Z,11.45
2023-03-10T10:33:05.786Z,11.33
2023-03-10T10:35:39.222Z,11.26
2023-03-10T10:38:11.491Z,11.16
2023-03-10T10:41:07.316Z,10.98
2023-03-10T10:43:43.496Z,10.85
2023-03-10T10:46:12.461Z,10.74
2023-03-10T10:48:46.107Z,10.58
2023-03-10T10:51:29.066Z,10.53
2023-03-10T10:54:01.808Z,10.42
2023-03-10T10:56:29.036Z,10.41
2023-03-10T10:59:07.891Z,10.45
2023-03-10T11:01:53.114Z,10.47
2023-03-10T11:04:20.876Z,10.43
2023-03-10T11:06:48.212Z,10.28
2023-03-10T11:09:18.766Z,10.29
2023-03-10T11:12:04.680Z,10.30
2023-03-10T11:15:01.873Z,10.18
2023-03-10T11:17:40.558Z,10.18
2023-03-10T11:20:25.497Z,10.16
2023-03-10T11:23:03.825Z,10.09
2023-03-10T11:25:36.968Z,10.02
2023-03-10T11:28:36.838Z,9.85
2023-03-10T11:31:31.298Z,9.87
2023-03-10T11:34:09.609Z,9.76
2023-03-10T11:37:14.362Z,9.69
2023-03-10T11:39:41.626Z,9.62
2023-03-10T11:42:14.843Z,9.60
2023-03-10T11:45:00.253Z,9.65
2023-03-10T11:47:45.943Z,9.57
2023-03-10T11:50:20.965Z,9.44
2023-03-10T11:52:49.588Z,9.44
2023-03-10T11:55:21.535Z,9.36
2023-03-10T11:57:53.110Z,9.37
2023-03-10T12:00:29.194Z,9.42
2023-03-10T12:03:19.797Z,9.43
2023-03-10T12:05:54.779Z,9.34
2023-03-10T12:08:23.666Z,9.39
2023-03-10T12:10:51.060Z,9.40
2023-03-10T12:13:32.958Z,9.29
2023-03-10T12:16:02.476Z,9.39
2023-03-10T12:18:29.554Z,9.40
2023-03-10T12:21:22.432Z,9.31
2023-03-10T12:23:54.378Z,9.30
2023-03-10T12:27:03.870Z,9.42
2023-03-10T12:29:36.894Z,9.53
2023-03-10T12:32:03.787Z,9.57
2023-03-10T12:34:32.342Z,9.52
2023-03-10T12:37:09.008Z,9.47
2023-03-10T12:39:38.637Z,9.44
2023-03-10T12:42:26.881Z,9.31
2023-03-10T12:44:55.923Z,9.25
2023-03-10T12:47:24.333Z,9.21
2023-03-10T12:49:57.323Z,9.27
2023-03-10T12:52:53.735Z,9.19
2023-03-10T12:55:24.184Z,9.18
2023-03-10T12:58:00.154Z,9.16
2023-03-10T13:00:43.289Z,9.11
2023-03-10T13:03:09.753Z,9.02
2023-03-10T13:05:41.217Z,9.06
2023-03-10T13:08:22.501Z,9.09
2023-03-10T13:10:54.582Z,9.11
2023-03-10T13:13:21.515Z,9.11
2023-03-10T13:16:03.607Z,9.12
2023-03-10T13:18:30.680Z,9.15
2023-03-10T13:21:01.522Z,9.15
2023-03-10T13:23:37.200Z,9.16
2023-03-10T13:26:15.969Z,9.20
2023-03-10T13:29:00.804Z,9.20
2023-03-10T13:31:28.618Z,9.21
2023-03-10T13:33:56.466Z,9.21
2023-03-10T13:36:36.886Z,9.13
2023-03-10T13:39:15.702Z,9.10
2023-03-10T13:41:46.536Z,9.00
2023-03-10T13:44:21.926Z,8.63
2023-03-10T13:46:56.932Z,8.52
2023-03-10T13:49:27.687Z,8.39
2023-03-10T13:52:01.529Z,8.26
2023-03-10T13:54:32.432Z,8.24
2023-03-10T13:57:02.910Z,8.24
2023-03-10T13:59:31.708Z,8.13
2023-03-10T14:02:00.393Z,8.08
2023-03-10T14:04:43.976Z,7.99
2023-03-10T14:07:18.528Z,7.80
2023-03-10T14:09:47.662Z,7.71
2023-03-10T14:12:15.479Z,7.50
2023-03-10T14:14:42.359Z,7.34
2023-03-10T14:17:29.740Z,7.15
2023-03-10T14:19:56.686Z,7.13
2023-03-10T14:22:41.409Z,7.04
2023-03-10T14:25:20.446Z,6.94
2023-03-10T14:27:50.569Z,6.90
2023-03-10T14:30:29.484Z,6.91
2023-03-10T14:32:57.413Z,6.97
2023-03-10T14:35:25.477Z,7.01
2023-03-10T14:37:53.117Z,6.99
2023-03-10T14:40:21.575Z,6.97
2023-03-10T14:42:50.425Z,6.98
2023-03-10T14:45:39.559Z,6.88
2023-03-10T14:48:14.684Z,6.88
2023-03-10T14:50:41.379Z,6.83
2023-03-10T14:53:12.968Z,6.83
2023-03-10T14:55:41.758Z,6.83
2023-03-10T14:58:14.119Z,6.83
2023-03-10T15:00:40.568Z,6.83
2023-03-10T15:03:07.028Z,6.77
2023-03-10T15:05:47.481Z,6.72
2023-03-10T15:08:15.140Z,6.69
2023-03-10T15:10:43.732Z,6.63
2023-03-10T15:13:13.719Z,6.59
2023-03-10T15:15:42.660Z,6.58
2023-03-10T15:18:13.674Z,6.39
2023-03-10T15:20:40.441Z,6.39
2023-03-10T15:23:07.542Z,6.24
2023-03-10T15:25:34.043Z,6.22
2023-03-10T15:28:00.558Z,6.17
2023-03-10T15:30:30.688Z,6.12
2023-03-10T15:32:57.290Z,6.13
2023-03-10T15:35:24.446Z,6.10
2023-03-10T15:37:52.020Z,6.08
2023-03-10T15:40:22.263Z,6.08
2023-03-10T15:42:49.700Z,6.13
2023-03-10T15:45:18.382Z,6.08
2023-03-10T15:47:46.207Z,6.14
2023-03-10T15:50:14.206Z,6.11
2023-03-10T15:52:46.042Z,6.08
2023-03-10T15:55:14.872Z,6.06
2023-03-10T15:57:41.541Z,5.98
2023-03-10T16:00:09.220Z,5.96
2023-03-10T16:02:35.700Z,5.98
2023-03-10T16:05:02.312Z,5.92
2023-03-10T16:07:28.819Z,5.84
2023-03-10T16:09:55.521Z,5.41
2023-03-10T16:12:23.369Z,5.24
2023-03-10T16:14:50.104Z,4.96
2023-03-10T16:17:16.841Z,4.79
2023-03-10T16:19:43.304Z,4.65
2023-03-10T16:22:10.428Z,4.48
2023-03-10T16:24:36.971Z,4.28
2023-03-10T16:27:03.688Z,4.07
2023-03-10T16:29:30.284Z,3.86
2023-03-10T16:31:56.788Z,3.63
2023-03-10T16:34:23.395Z,3.33
2023-03-10T16:36:50.410Z,3.18
2023-03-10T16:39:17.938Z,2.87
2023-03-10T16:41:44.582Z,2.62
2023-03-10T16:44:13.059Z,2.41
2023-03-10T16:46:39.820Z,2.28
2023-03-10T16:49:07.238Z,2.09
2023-03-10T16:51:35.260Z,1.97
2023-03-10T16:54:04.549Z,1.88
2023-03-10T16:56:32.621Z,1.63
2023-03-10T16:58:59.088Z,1.61
2023-03-10T17:01:25.603Z,1.61
2023-03-10T17:03:54.214Z,1.51
2023-03-10T17:06:24.919Z,1.42
2023-03-10T17:08:52.862Z,1.27
2023-03-10T17:11:25.732Z,1.25
2023-03-10T17:13:54.294Z,1.20
2023-03-10T17:16:23.550Z,1.16
2023-03-10T17:18:51.022Z,1.09
2023-03-10T17:21:20.578Z,1.00
2023-03-10T17:23:47.730Z,0.91
2023-03-10T17:26:15.187Z,0.89
2023-03-10T17:28:43.368Z,0.90
2023-03-10T17:31:12.916Z,0.86
2023-03-10T17:33:39.939Z,0.85
2023-03-10T17:36:12.310Z,0.85
2023-03-10T17:38:40.871Z,0.82
2023-03-10T17:41:10.077Z,0.83
2023-03-10T17:43:37.185Z,0.85
2023-03-10T17:46:14.575Z,0.88
2023-03-10T17:48:41.497Z,0.90
2023-03-10T17:51:08.788Z,0.89
2023-03-10T17:53:35.463Z,0.92
2023-03-10T17:56:06.316Z,0.94
2023-03-10T17:58:33.560Z,0.84
2023-03-10T18:01:16.592Z,0.80
2023-03-10T18:03:43.176Z,0.83
2023-03-10T18:06:18.120Z,0.89
2023-03-10T18:08:45.285Z,0.89
2023-03-10T18:11:12.188Z,0.91
2023-03-10T18:13:39.136Z,0.86
2023-03-10T18:16:07.914Z,0.87
2023-03-10T18:18:34.410Z,0.83
2023-03-10T18:21:00.889Z,0.89
2023-03-10T18:23:27.377Z,0.89
2023-03-10T18:25:53.908Z,0.91
2023-03-10T18:28:20.705Z,0.84
2023-03-10T18:30:49.448Z,0.85
2023-03-10T18:33:16.138Z,0.87
2023-03-10T18:35:44.791Z,0.86
2023-03-10T18:38:13.448Z,0.88
2023-03-10T18:40:40.865Z,0.88
2023-03-10T18:43:07.388Z,0.87
2023-03-10T18:45:33.854Z,0.87
2023-03-10T18:48:00.445Z,0.82
2023-03-10T18:50:26.940Z,0.82
2023-03-10T18:52:53.459Z,0.88
2023-03-10T18:55:19.896Z,0.77
2023-03-10T18:57:46.412Z,0.82
2023-03-10T19:00:14.815Z,0.82
2023-03-10T19:02:44.550Z,0.83
2023-03-10T19:05:15.343Z,0.79
2023-03-10T19:07:42.063Z,0.80
2023-03-10T19:10:11.586Z,0.82
2023-03-10T19:12:38.159Z,0.82
2023-03-10T19:15:08.867Z,0.85
2023-03-10T19:17:37.559Z,0.86
2023-03-10T19:20:07.343Z,0.88
2023-03-10T19:22:34.945Z,0.89
2023-03-10T19:25:03.524Z,0.87
2023-03-10T19:27:30.649Z,0.85
2023-03-10T19:29:57.214Z,0.87
2023-03-10T19:32:24.270Z,0.90
2023-03-10T19:34:50.892Z,0.90
2023-03-10T19:37:17.509Z,0.91
2023-03-10T19:39:43.963Z,0.89
2023-03-10T19:42:10.493Z,0.94
2023-03-10T19:44:40.103Z,0.94
2023-03-10T19:47:06.721Z,0.88
2023-03-10T19:49:34.218Z,0.89
2023-03-10T19:52:01.647Z,0.89
2023-03-10T19:54:28.162Z,0.88
2023-03-10T19:56:54.661Z,0.86
2023-03-10T19:59:21.207Z,0.82
2023-03-10T20:01:49.255Z,0.87
2023-03-10T20:04:15.949Z,0.83
2023-03-10T20:06:42.429Z,0.82
2023-03-10T20:09:10.384Z,0.76
2023-03-10T20:11:41.067Z,0.82
2023-03-10T20:14:08.439Z,0.81
2023-03-10T20:16:35.465Z,0.80
2023-03-10T20:19:02.078Z,0.79
2023-03-10T20:21:29.318Z,0.82
2023-03-10T20:23:56.409Z,0.84
2023-03-10T20:26:23.448Z,0.88
2023-03-10T20:28:50.543Z,0.78
2023-03-10T20:31:20.160Z,0.70
2023-03-10T20:33:47.732Z,0.68
2023-03-10T20:36:15.842Z,0.71
2023-03-10T20:38:44.136Z,0.69
2023-03-10T20:41:15.692Z,0.67
2023-03-10T20:43:43.022Z,0.65
2023-03-10T20:46:09.995Z,0.66
2023-03-10T20:48:36.640Z,0.64
2023-03-10T20:51:03.628Z,0.64
2023-03-10T20:53:33.296Z,0.61
2023-03-10T20:56:00.632Z,0.59
2023-03-10T20:58:27.890Z,0.51
2023-03-10T21:00:54.413Z,0.53
2023-03-10T21:03:23.831Z,0.53
2023-03-10T21:05:50.278Z,0.57
2023-03-10T21:08:16.782Z,0.52
2023-03-10T21:10:44.916Z,0.50
2023-03-10T21:13:12.030Z,0.46
2023-03-10T21:15:39.741Z,0.47
2023-03-10T21:18:06.432Z,0.48
2023-03-10T21:20:33.815Z,0.51
2023-03-10T21:23:00.472Z,0.50
2023-03-10T21:25:28.304Z,0.54
2023-03-10T21:27:58.683Z,0.46
2023-03-10T21:30:31.638Z,0.45
2023-03-10T21:32:58.684Z,0.43
2023-03-10T21:35:26.863Z,0.42
2023-03-10T21:37:55.377Z,0.41
2023-03-10T21:40:24.300Z,0.43
2023-03-10T21:42:51.144Z,0.33
2023-03-10T21:45:22.779Z,0.37
2023-03-10T21:47:49.470Z,0.37
2023-03-10T21:50:16.649Z,0.39
2023-03-10T21:52:43.652Z,0.35
2023-03-10T21:55:18.470Z,0.35
2023-03-10T21:57:44.984Z,0.37
2023-03-10T22:00:12.852Z,0.35
2023-03-10T22:02:39.399Z,0.40
2023-03-10T22:05:06.564Z,0.37
2023-03-10T22:07:33.588Z,0.35
2023-03-10T22:10:00.143Z,0.39
2023-03-10T22:12:26.641Z,0.42
2023-03-10T22:14:56.362Z,0.39
2023-03-10T22:17:24.713Z,0.43
2023-03-10T22:19:54.595Z,0.46
2023-03-10T22:22:22.300Z,0.39
2023-03-10T22:24:49.273Z,0.47
2023-03-10T22:27:15.765Z,0.40
2023-03-10T22:29:42.291Z,0.41
2023-03-10T22:32:08.853Z,0.47
2023-03-10T22:34:35.416Z,0.46
2023-03-10T22:37:01.856Z,0.45
2023-03-10T22:39:28.370Z,0.47
2023-03-10T22:41:54.809Z,0.50
2023-03-10T22:44:21.393Z,0.50
2023-03-10T22:46:48.132Z,0.50
2023-03-10T22:49:14.819Z,0.53
2023-03-10T22:51:41.861Z,0.52
2023-03-10T22:54:08.312Z,0.55
2023-03-10T22:56:34.753Z,0.57
2023-03-10T22:59:03.925Z,0.55
2023-03-10T23:01:30.564Z,0.58
2023-03-10T23:03:57.384Z,0.63
2023-03-10T23:06:26.270Z,0.65
2023-03-10T23:08:52.860Z,0.65
2023-03-10T23:11:19.509Z,0.63
2023-03-10T23:13:46.076Z,0.62
2023-03-10T23:16:12.598Z,0.64
2023-03-10T23:18:39.229Z,0.63
2023-03-10T23:21:06.932Z,0.63
2023-03-10T23:23:33.686Z,0.63
2023-03-10T23:26:00.271Z,0.64
2023-03-10T23:28:27.190Z,0.67
2023-03-10T23:30:54.329Z,0.65
2023-03-10T23:33:22.824Z,0.68
2023-03-10T23:35:55.269Z,0.68
2023-03-10T23:38:24.531Z,0.68
2023-03-10T23:40:52.557Z,0.66
2023-03-10T23:43:19.384Z,0.68
2023-03-10T23:45:46.256Z,0.71
2023-03-10T23:48:16.144Z,0.74
2023-03-10T23:50:44.952Z,0.75
2023-03-10T23:53:13.067Z,0.75
2023-03-10T23:55:43.516Z,0.75
2023-03-10T23:58:10.743Z,0.79
